WADD/DPS METAR and TAF weather

Enter ICAO airport designator
Station Type Date Time Source
WADD METAR 2022/05/23 15:00 UTC NOAA

WADD 231500Z 05003KT 9999 SCT017 27/24 Q1010 NOSIG


Station Type Date Time Source
WADD Decoded METAR 2022/05/23 15:00 UTC NOAA

Station name not available
May 23, 2022 - 11:00 AM EDT / 2022.05.23 1500 UTC
Wind: from the NE (050 degrees) at 3 MPH (3 KT):0
Visibility: greater than 7 mile(s):0
Sky conditions: partly cloudy
Temperature: 80 F (27 C)
Dew Point: 75 F (24 C)
Relative Humidity: 83%
Pressure (altimeter): 29.83 in. Hg (1010 hPa)
ob: WADD 231500Z 05003KT 9999 SCT017 27/24 Q1010 NOSIG
cycle: 15

Station Type Date Time Source
WADD TAF 2022/05/23 12:09 UTC NOAA

TAF WADD 231100Z 2312/2412 11010KT 9999 SCT017
TEMPO 2319/2323 VRB05KT

Example: see airport list